Time;durP1;ratioP1;P1;durP2;ratioP2;P2;SDS_P1;SDS_P2;PMS_P1;PMS_P2;Temp;Humidity;BMP_temperature;BMP_pressure;BME280_temperature;BME280_humidity;BME280_pressure;Samples;Min_cycle;Max_cycle;Signal;HPM_P1;HPM_P2
2022/11/11 00:00:50;;;;;;;1.80;1.80;;;18.60;73.80;;;;;;5051977;28;43400;-73
2022/11/11 00:03:37;;;;;;;1.97;1.97;;;18.50;73.80;;;;;;5052930;28;43480;-75
2022/11/11 00:06:23;;;;;;;1.90;1.90;;;18.50;74.10;;;;;;5050428;28;43605;-74
2022/11/11 00:09:10;;;;;;;1.90;1.90;;;18.50;74.40;;;;;;5046315;28;43452;-73
2022/11/11 00:11:57;;;;;;;1.90;1.90;;;18.50;74.10;;;;;;5050167;28;43456;-73
2022/11/11 00:14:43;;;;;;;2.20;2.20;;;18.50;74.00;;;;;;5044557;28;43364;-73
2022/11/11 00:26:44;;;;;;;2.10;2.10;;;18.50;74.00;;;;;;5049582;28;43429;-72
2022/11/11 00:29:31;;;;;;;1.70;1.70;;;18.70;73.50;;;;;;5042374;28;43482;-74
2022/11/11 00:32:23;;;;;;;1.80;1.80;;;18.90;73.00;;;;;;5047043;28;43440;-73
2022/11/11 00:38:44;;;;;;;1.80;1.80;;;18.80;72.90;;;;;;5050590;28;43333;-73
2022/11/11 00:41:24;;;;;;;2.00;2.00;;;18.70;73.10;;;;;;5044739;28;43618;-74
2022/11/11 00:44:11;;;;;;;1.90;1.90;;;18.60;73.40;;;;;;5050757;28;43473;-72
2022/11/11 00:53:20;;;;;;;2.03;2.03;;;18.50;73.80;;;;;;5048720;28;43480;-73
2022/11/11 00:56:12;;;;;;;1.97;1.97;;;18.50;73.90;;;;;;5045319;28;43350;-74
2022/11/11 00:58:58;;;;;;;2.10;2.10;;;18.40;74.30;;;;;;5050820;28;43352;-73
2022/11/11 01:01:46;;;;;;;1.87;1.87;;;18.50;74.50;;;;;;5044090;28;43508;-73
2022/11/11 01:04:32;;;;;;;1.80;1.80;;;18.60;74.10;;;;;;5047924;28;44068;-73
2022/11/11 01:07:20;;;;;;;1.87;1.87;;;18.60;73.60;;;;;;5048096;28;43376;-73
2022/11/11 01:10:07;;;;;;;1.87;1.87;;;18.70;73.50;;;;;;5048120;28;43312;-73
2022/11/11 01:13:10;;;;;;;1.90;1.90;;;18.60;73.60;;;;;;5049189;28;43414;-73
2022/11/11 01:15:59;;;;;;;2.00;2.00;;;18.60;73.70;;;;;;5048404;28;43497;-73
2022/11/11 01:18:45;;;;;;;1.87;1.87;;;18.60;73.70;;;;;;5047985;28;43392;-73
2022/11/11 01:21:32;;;;;;;1.80;1.80;;;18.60;73.60;;;;;;5045996;28;43489;-73
2022/11/11 01:24:20;;;;;;;2.10;2.10;;;18.60;73.70;;;;;;5048398;28;43862;-73
2022/11/11 01:27:06;;;;;;;2.03;2.03;;;18.50;73.80;;;;;;5044565;28;43654;-73
2022/11/11 01:29:53;;;;;;;2.00;2.00;;;18.50;74.30;;;;;;5047732;28;43396;-74
2022/11/11 01:32:39;;;;;;;1.70;1.70;;;18.50;74.10;;;;;;5048704;28;43445;-72
2022/11/11 01:35:26;;;;;;;2.00;2.00;;;18.50;74.00;;;;;;5045244;28;43417;-73
2022/11/11 01:38:12;;;;;;;1.80;1.80;;;18.40;74.00;;;;;;5049612;28;43548;-72
2022/11/11 01:41:00;;;;;;;1.90;1.90;;;18.40;74.30;;;;;;5050986;28;43440;-74
2022/11/11 01:44:17;;;;;;;2.10;2.10;;;18.40;74.50;;;;;;5046762;28;43973;-74
2022/11/11 01:47:04;;;;;;;1.90;1.90;;;18.50;74.10;;;;;;5046982;28;43384;-74
2022/11/11 01:49:51;;;;;;;2.00;2.00;;;18.70;73.60;;;;;;5047240;28;43695;-76
2022/11/11 01:52:40;;;;;;;1.83;1.83;;;18.80;73.00;;;;;;5047890;28;43444;-73
2022/11/11 01:55:27;;;;;;;1.70;1.70;;;18.80;72.80;;;;;;5044102;28;43414;-73
2022/11/11 01:58:15;;;;;;;1.80;1.80;;;18.80;73.00;;;;;;5048543;28;43385;-74
2022/11/11 02:01:01;;;;;;;1.90;1.90;;;18.70;73.00;;;;;;5043588;28;43604;-74
2022/11/11 02:05:41;;;;;;;1.93;1.93;;;18.60;73.20;;;;;;5041705;28;43374;-74
2022/11/11 02:06:57;;;;;;;1.90;1.90;;;18.60;73.80;;;;;;5040897;28;43496;-74
2022/11/11 02:09:45;;;;;;;2.07;2.07;;;18.50;73.80;;;;;;5043522;28;43467;-73
2022/11/11 02:15:37;;;;;;;1.90;1.90;;;18.50;73.80;;;;;;5037461;28;43397;-75
2022/11/11 02:18:24;;;;;;;2.00;2.00;;;18.50;73.80;;;;;;5045604;28;43930;-73
2022/11/11 02:21:13;;;;;;;1.93;1.93;;;18.40;74.20;;;;;;5042005;28;43380;-74
2022/11/11 02:24:03;;;;;;;2.00;2.00;;;18.40;74.40;;;;;;5045438;28;43733;-74
2022/11/11 02:26:50;;;;;;;1.83;1.83;;;18.50;73.90;;;;;;5044351;28;43714;-74
2022/11/11 02:29:43;;;;;;;2.00;2.00;;;18.60;73.70;;;;;;5046264;28;43980;-74
2022/11/11 02:32:30;;;;;;;1.70;1.70;;;18.60;73.50;;;;;;5046227;28;43404;-73
2022/11/11 02:35:17;;;;;;;1.80;1.80;;;18.50;73.80;;;;;;5039533;28;43607;-73
2022/11/11 02:38:07;;;;;;;1.83;1.83;;;18.50;73.80;;;;;;5043518;28;43359;-76
2022/11/11 02:43:59;;;;;;;1.80;1.80;;;18.50;73.80;;;;;;5044333;28;43455;-75
2022/11/11 02:46:46;;;;;;;1.60;1.60;;;18.40;73.80;;;;;;5044853;28;44613;-73
2022/11/11 02:49:32;;;;;;;1.80;1.80;;;18.40;74.40;;;;;;5039577;28;43364;-75
2022/11/11 02:52:20;;;;;;;1.87;1.87;;;18.40;74.40;;;;;;5043016;28;43366;-75
2022/11/11 02:55:08;;;;;;;2.10;2.10;;;18.50;74.10;;;;;;5044914;28;43373;-75
2022/11/11 02:57:56;;;;;;;1.73;1.73;;;18.50;73.80;;;;;;5040089;28;43571;-75
2022/11/11 03:00:42;;;;;;;1.70;1.70;;;18.50;73.70;;;;;;5042944;28;43332;-74
2022/11/11 03:03:29;;;;;;;1.70;1.70;;;18.50;74.10;;;;;;5038728;28;43406;-73
2022/11/11 03:06:16;;;;;;;1.70;1.70;;;18.50;74.10;;;;;;5043008;28;43505;-75
2022/11/11 03:09:03;;;;;;;1.53;1.53;;;18.40;73.90;;;;;;5038706;28;43708;-74
2022/11/11 03:11:49;;;;;;;1.60;1.60;;;18.40;73.80;;;;;;5044934;28;43410;-73
2022/11/11 03:14:37;;;;;;;1.80;1.80;;;18.40;73.90;;;;;;5042653;28;44009;-74
2022/11/11 03:17:39;;;;;;;1.77;1.77;;;18.40;74.50;;;;;;5038984;28;43451;-74
2022/11/11 03:23:30;;;;;;;1.70;1.70;;;18.60;73.90;;;;;;5042034;28;43564;-75
2022/11/11 03:26:18;;;;;;;1.50;1.50;;;18.70;73.50;;;;;;5044678;28;44016;-73
2022/11/11 03:29:04;;;;;;;1.80;1.80;;;18.60;73.20;;;;;;5040457;28;43428;-76
2022/11/11 03:31:52;;;;;;;1.50;1.50;;;18.60;73.70;;;;;;5043545;28;43564;-73
2022/11/11 03:34:39;;;;;;;1.60;1.60;;;18.60;73.70;;;;;;5045567;28;43446;-74
2022/11/11 03:40:29;;;;;;;1.50;1.50;;;18.50;73.50;;;;;;5047980;28;43412;-74
2022/11/11 03:43:16;;;;;;;1.30;1.30;;;18.50;73.70;;;;;;5043990;28;43930;-74
2022/11/11 03:46:04;;;;;;;1.27;1.27;;;18.40;74.10;;;;;;5045773;28;43344;-74
2022/11/11 03:48:51;;;;;;;1.50;1.50;;;18.40;74.20;;;;;;5045554;28;43340;-73
2022/11/11 03:51:38;;;;;;;1.70;1.70;;;18.40;74.10;;;;;;5046623;28;43498;-74
2022/11/11 03:54:25;;;;;;;1.50;1.50;;;18.40;74.10;;;;;;5043623;28;44001;-74
2022/11/11 04:00:16;;;;;;;1.30;1.30;;;18.30;74.50;;;;;;5041493;28;43483;-75
2022/11/11 04:12:17;;;;;;;1.50;1.50;;;18.60;73.40;;;;;;5045244;28;43395;-73
2022/11/11 04:18:08;;;;;;;1.30;1.30;;;18.60;73.70;;;;;;5044879;28;43984;-75
2022/11/11 04:25:47;;;;;;;1.60;1.60;;;18.50;73.60;;;;;;5038359;28;43536;-74
2022/11/11 04:27:13;;;;;;;1.40;1.40;;;18.40;73.80;;;;;;5048084;28;43471;-74
2022/11/11 04:29:59;;;;;;;1.40;1.40;;;18.40;74.40;;;;;;5045085;28;43882;-73
2022/11/11 04:32:46;;;;;;;1.40;1.40;;;18.40;74.10;;;;;;5044950;28;43417;-74
2022/11/11 04:35:32;;;;;;;1.40;1.40;;;18.40;74.10;;;;;;5041549;28;43401;-73
2022/11/11 04:41:24;;;;;;;1.53;1.53;;;18.30;74.20;;;;;;5045034;28;43653;-73
2022/11/11 04:47:30;;;;;;;1.70;1.70;;;18.40;74.20;;;;;;5046078;28;43444;-73
2022/11/11 04:50:16;;;;;;;1.70;1.60;;;18.60;74.50;;;;;;5040631;28;43380;-73
2022/11/11 04:53:04;;;;;;;1.40;1.40;;;18.60;73.40;;;;;;5044681;28;43551;-74
2022/11/11 05:05:00;;;;;;;1.50;1.50;;;18.50;73.40;;;;;;5044795;28;43734;-73
2022/11/11 05:10:50;;;;;;;1.90;1.80;;;18.40;73.80;;;;;;5015123;28;43385;-74
2022/11/11 05:22:56;;;;;;;2.10;2.00;;;18.40;73.90;;;;;;5044454;28;43439;-75
2022/11/11 05:25:41;;;;;;;3.47;2.30;;;18.30;74.30;;;;;;5042182;28;43440;-74
2022/11/11 05:28:28;;;;;;;2.40;2.20;;;18.40;74.50;;;;;;5044137;28;43690;-75
2022/11/11 05:31:14;;;;;;;2.10;2.00;;;18.50;74.00;;;;;;5043932;28;43396;-74
2022/11/11 05:34:02;;;;;;;2.13;2.00;;;18.60;73.50;;;;;;5044114;28;43425;-76
2022/11/11 05:36:48;;;;;;;2.30;2.20;;;18.60;73.10;;;;;;5043194;28;43413;-73
2022/11/11 05:39:34;;;;;;;2.40;2.27;;;18.60;73.10;;;;;;5045035;28;43653;-74
2022/11/11 05:42:20;;;;;;;2.80;2.60;;;18.60;73.40;;;;;;5044873;28;44137;-74
2022/11/11 05:45:08;;;;;;;2.83;2.50;;;18.60;73.30;;;;;;5043828;28;43344;-73
2022/11/11 05:47:55;;;;;;;2.47;2.27;;;18.50;73.20;;;;;;5043714;28;43429;-74
2022/11/11 05:50:43;;;;;;;2.63;2.43;;;18.50;73.30;;;;;;5040879;28;43494;-75
2022/11/11 05:53:29;;;;;;;2.93;2.40;;;18.40;73.60;;;;;;5040758;28;43452;-73
2022/11/11 05:56:16;;;;;;;2.67;2.47;;;18.40;74.10;;;;;;5041055;28;43364;-73
2022/11/11 05:59:02;;;;;;;2.80;2.23;;;18.40;73.80;;;;;;5046049;28;43380;-74
2022/11/11 06:01:49;;;;;;;2.57;2.37;;;18.40;73.80;;;;;;5041975;28;43568;-75
2022/11/11 06:04:35;;;;;;;2.70;2.60;;;18.40;73.90;;;;;;5044626;28;43403;-74
2022/11/11 06:07:23;;;;;;;3.63;2.80;;;18.30;74.00;;;;;;5043688;28;43392;-74
2022/11/11 06:13:14;;;;;;;3.10;2.80;;;18.40;74.30;;;;;;5043483;28;43883;-74
2022/11/11 06:16:01;;;;;;;2.70;2.50;;;18.50;73.70;;;;;;5045739;28;43424;-74
2022/11/11 06:18:47;;;;;;;3.00;2.67;;;18.50;73.40;;;;;;5043209;28;43364;-74
2022/11/11 06:21:55;;;;;;;3.20;2.90;;;18.60;73.30;;;;;;5041234;28;43360;-75
2022/11/11 06:26:11;;;;;;;2.60;2.50;;;18.50;73.70;;;;;;5044770;28;43671;-76
2022/11/11 06:27:48;;;;;;;3.00;2.70;;;18.50;73.40;;;;;;5045553;28;43372;-74
2022/11/11 06:30:34;;;;;;;2.67;2.47;;;18.50;73.20;;;;;;5038639;28;43986;-75
2022/11/11 06:33:37;;;;;;;2.63;2.43;;;18.50;73.50;;;;;;5043676;28;43372;-72
2022/11/11 06:36:23;;;;;;;2.80;2.60;;;18.40;73.80;;;;;;5042957;28;43490;-74
2022/11/11 06:39:10;;;;;;;3.33;3.03;;;18.40;74.10;;;;;;5044615;28;43674;-74
2022/11/11 06:41:59;;;;;;;3.53;2.47;;;18.40;73.80;;;;;;5044311;28;43305;-74
2022/11/11 06:44:45;;;;;;;2.93;2.73;;;18.40;73.80;;;;;;5043281;28;43416;-75
2022/11/11 06:47:32;;;;;;;3.10;2.80;;;18.30;73.80;;;;;;5042917;28;43501;-74
2022/11/11 06:50:18;;;;;;;2.90;2.70;;;18.30;74.20;;;;;;5042227;28;43408;-75
2022/11/11 06:53:05;;;;;;;3.30;3.00;;;18.30;74.30;;;;;;5043100;28;43431;-75
2022/11/11 06:55:52;;;;;;;2.93;2.73;;;18.30;73.90;;;;;;5043352;28;43479;-74
2022/11/11 06:58:40;;;;;;;2.37;2.27;;;18.30;73.90;;;;;;5039237;28;43655;-73
2022/11/11 07:01:26;;;;;;;2.27;2.17;;;18.30;73.90;;;;;;5042843;28;43483;-74
2022/11/11 07:04:12;;;;;;;2.90;2.70;;;18.30;74.00;;;;;;5037718;28;43520;-74
2022/11/11 07:06:59;;;;;;;2.43;2.33;;;18.30;74.60;;;;;;5045172;28;43349;-75
2022/11/11 07:09:45;;;;;;;2.47;2.37;;;18.40;74.30;;;;;;5048643;28;43651;-75
2022/11/11 07:12:31;;;;;;;3.07;2.70;;;18.50;73.70;;;;;;5049308;28;43472;-75
2022/11/11 07:15:19;;;;;;;2.80;2.60;;;18.70;73.10;;;;;;5047518;28;43494;-74
2022/11/11 07:18:06;;;;;;;3.23;2.80;;;18.80;72.60;;;;;;5043222;28;43880;-73
2022/11/11 07:20:52;;;;;;;2.60;2.33;;;18.80;72.40;;;;;;5046487;28;43541;-75
2022/11/11 07:23:38;;;;;;;3.10;2.90;;;18.80;72.60;;;;;;5045046;28;43466;-74
2022/11/11 07:26:25;;;;;;;2.83;2.57;;;18.70;72.80;;;;;;5046922;28;43538;-74
2022/11/11 07:29:13;;;;;;;2.33;2.20;;;18.60;73.00;;;;;;5046701;28;43447;-75
2022/11/11 07:32:01;;;;;;;2.70;2.50;;;18.50;73.50;;;;;;5045839;28;43656;-75
2022/11/11 07:34:49;;;;;;;2.57;2.37;;;18.50;73.50;;;;;;5041950;28;43452;-73
2022/11/11 07:37:36;;;;;;;3.03;2.73;;;18.50;73.50;;;;;;5045559;28;43523;-74
2022/11/11 07:40:23;;;;;;;2.40;2.30;;;18.40;73.50;;;;;;5040952;28;43483;-74
2022/11/11 07:43:09;;;;;;;2.60;2.40;;;18.30;73.60;;;;;;5045881;28;43609;-75
2022/11/11 07:45:55;;;;;;;3.30;2.50;;;18.30;74.10;;;;;;5045656;28;43962;-74
2022/11/11 07:48:43;;;;;;;2.37;2.20;;;18.40;74.00;;;;;;5045878;28;43889;-73
2022/11/11 07:51:29;;;;;;;2.57;2.40;;;18.40;73.90;;;;;;5045477;28;43438;-76
2022/11/11 07:54:16;;;;;;;2.47;2.30;;;18.30;73.80;;;;;;5045869;28;43602;-75
2022/11/11 07:57:02;;;;;;;3.00;2.70;;;18.30;73.90;;;;;;5046112;28;43412;-73
2022/11/11 07:59:49;;;;;;;2.53;2.33;;;18.30;74.30;;;;;;5045505;28;43392;-75
2022/11/11 08:02:35;;;;;;;2.70;2.57;;;18.30;74.30;;;;;;5046823;28;43452;-74
2022/11/11 08:05:23;;;;;;;2.80;2.60;;;18.50;74.00;;;;;;5045321;28;43568;-74
2022/11/11 08:08:10;;;;;;;2.47;2.37;;;18.60;73.40;;;;;;5045767;28;43436;-75
2022/11/11 08:10:56;;;;;;;2.83;2.43;;;18.80;72.90;;;;;;5041654;28;43419;-74
2022/11/11 08:13:42;;;;;;;2.40;2.30;;;18.80;72.60;;;;;;5047850;28;43520;-75
2022/11/11 08:16:29;;;;;;;2.47;2.37;;;18.70;72.50;;;;;;5047912;28;43858;-73
2022/11/11 08:19:15;;;;;;;2.77;2.57;;;18.60;72.60;;;;;;5044088;28;43397;-73
2022/11/11 08:22:03;;;;;;;2.27;2.17;;;18.60;72.90;;;;;;5045669;28;43388;-74
2022/11/11 08:24:49;;;;;;;2.80;2.60;;;18.50;73.20;;;;;;5043544;28;43736;-74
2022/11/11 08:27:56;;;;;;;2.37;2.17;;;18.40;73.70;;;;;;5047462;28;43978;-73
2022/11/11 08:30:43;;;;;;;2.67;2.47;;;18.40;73.60;;;;;;5043924;28;43396;-73
2022/11/11 08:33:29;;;;;;;2.63;2.43;;;18.40;73.60;;;;;;5047864;28;43422;-73
2022/11/11 08:36:20;;;;;;;2.40;2.30;;;18.40;73.80;;;;;;5042165;28;43468;-74
2022/11/11 08:39:08;;;;;;;2.37;2.20;;;18.30;73.80;;;;;;5046775;28;43921;-76
2022/11/11 08:41:55;;;;;;;2.47;2.33;;;18.30;74.30;;;;;;5042577;28;43488;-75
2022/11/11 08:44:42;;;;;;;2.67;2.47;;;18.40;74.00;;;;;;5044862;28;43969;-73
2022/11/11 08:47:28;;;;;;;2.40;2.30;;;18.50;73.60;;;;;;5047494;28;43500;-75
2022/11/11 08:50:14;;;;;;;2.50;2.30;;;18.50;73.30;;;;;;5037658;28;43482;-74
2022/11/11 08:53:01;;;;;;;2.20;2.10;;;18.50;73.40;;;;;;5044771;28;43375;-73
2022/11/11 08:55:48;;;;;;;2.17;2.03;;;18.50;73.70;;;;;;5044762;28;43356;-73
2022/11/11 08:58:35;;;;;;;2.20;2.10;;;18.50;73.50;;;;;;5041130;28;43996;-73
2022/11/11 09:01:22;;;;;;;2.33;2.23;;;18.40;73.40;;;;;;5044836;28;43647;-75
2022/11/11 09:04:08;;;;;;;2.30;2.20;;;18.40;73.50;;;;;;5042315;28;43388;-73
2022/11/11 09:07:14;;;;;;;2.40;2.20;;;18.40;73.60;;;;;;5044278;28;43370;-74
2022/11/11 09:10:01;;;;;;;1.90;1.80;;;18.40;74.10;;;;;;5044794;28;43834;-74
2022/11/11 09:12:49;;;;;;;2.30;2.20;;;18.30;73.90;;;;;;5044487;28;43572;-73
2022/11/11 09:15:35;;;;;;;2.40;2.30;;;18.30;73.80;;;;;;5044726;28;43347;-74
2022/11/11 09:18:22;;;;;;;2.10;2.00;;;18.30;73.90;;;;;;5046619;28;43756;-73
2022/11/11 09:21:08;;;;;;;2.30;2.20;;;18.30;74.30;;;;;;5044970;28;43492;-74
2022/11/11 09:23:55;;;;;;;2.40;2.23;;;18.30;74.30;;;;;;5045714;28;43660;-74
2022/11/11 09:26:41;;;;;;;2.27;2.17;;;18.40;74.00;;;;;;5045164;28;43354;-73
2022/11/11 09:29:29;;;;;;;2.10;2.10;;;18.50;73.50;;;;;;5046142;28;43885;-74
2022/11/11 09:32:15;;;;;;;2.57;2.43;;;18.60;73.30;;;;;;5040178;28;43979;-75
2022/11/11 09:35:02;;;;;;;2.07;1.97;;;18.50;73.20;;;;;;5043955;28;43737;-74
2022/11/11 09:37:58;;;;;;;2.37;2.23;;;18.50;73.50;;;;;;5040895;28;43551;-74
2022/11/11 09:40:49;;;;;;;2.27;2.17;;;18.50;73.40;;;;;;5043677;28;43404;-73
2022/11/11 09:43:41;;;;;;;1.90;1.90;;;18.50;73.40;;;;;;5039298;28;43455;-74
2022/11/11 09:46:33;;;;;;;2.10;2.00;;;18.40;73.50;;;;;;5043692;28;43621;-74
2022/11/11 09:49:27;;;;;;;2.00;1.90;;;18.40;73.90;;;;;;5043829;28;43477;-74
2022/11/11 09:52:16;;;;;;;2.30;2.20;;;18.30;74.00;;;;;;5042293;28;43461;-72
2022/11/11 09:55:04;;;;;;;2.37;2.27;;;18.30;73.90;;;;;;5038288;28;43766;-75
2022/11/11 09:57:52;;;;;;;2.00;1.90;;;18.30;73.90;;;;;;5040449;28;43682;-75
2022/11/11 10:00:38;;;;;;;2.10;2.00;;;18.30;74.00;;;;;;5046635;28;43385;-74
2022/11/11 10:03:29;;;;;;;2.10;2.00;;;18.30;74.30;;;;;;5041084;28;43464;-73
2022/11/11 10:06:19;;;;;;;2.10;2.00;;;18.30;74.30;;;;;;5043733;28;43500;-74
2022/11/11 10:09:16;;;;;;;2.50;2.37;;;18.40;74.00;;;;;;5043462;28;43611;-73
2022/11/11 10:12:07;;;;;;;1.90;1.87;;;18.50;73.50;;;;;;5045917;28;43375;-73
2022/11/11 10:14:54;;;;;;;1.80;1.80;;;18.60;73.30;;;;;;5038642;28;43401;-74
2022/11/11 10:17:46;;;;;;;1.90;1.90;;;18.50;73.40;;;;;;5041672;28;43428;-74
2022/11/11 10:20:36;;;;;;;2.10;2.00;;;18.50;73.50;;;;;;5039309;28;43537;-72
2022/11/11 10:23:26;;;;;;;1.90;1.80;;;18.50;73.40;;;;;;5040487;28;43480;-73
2022/11/11 10:26:16;;;;;;;1.93;1.87;;;18.40;73.40;;;;;;5043905;28;43791;-75
2022/11/11 10:29:02;;;;;;;2.20;2.10;;;18.40;73.50;;;;;;5040260;28;43390;-74
2022/11/11 10:31:54;;;;;;;2.20;2.10;;;18.30;73.80;;;;;;5044349;28;43605;-73
2022/11/11 10:34:41;;;;;;;2.33;2.13;;;18.30;74.10;;;;;;5038720;28;43402;-73
2022/11/11 10:37:40;;;;;;;1.77;1.77;;;18.30;73.90;;;;;;5043236;28;43372;-73
2022/11/11 10:40:29;;;;;;;2.40;2.30;;;18.30;73.90;;;;;;5044396;28;43348;-74
2022/11/11 10:43:21;;;;;;;2.10;2.00;;;18.30;74.00;;;;;;5043117;28;43683;-73
2022/11/11 10:46:11;;;;;;;2.20;2.10;;;18.20;74.10;;;;;;5043266;28;43927;-73
2022/11/11 10:48:59;;;;;;;2.27;2.17;;;18.30;74.60;;;;;;5041178;28;44058;-75
2022/11/11 10:51:47;;;;;;;2.30;2.20;;;18.40;74.20;;;;;;5045337;28;43556;-74
2022/11/11 10:54:36;;;;;;;1.77;1.73;;;18.50;73.70;;;;;;5043143;28;43491;-73
2022/11/11 10:57:31;;;;;;;1.97;1.97;;;18.50;73.30;;;;;;5040143;28;43347;-74
2022/11/11 11:00:17;;;;;;;2.07;1.97;;;18.50;73.30;;;;;;5039594;28;43370;-74
2022/11/11 11:03:07;;;;;;;2.20;2.10;;;18.50;73.70;;;;;;5043604;28;43926;-74
2022/11/11 11:05:56;;;;;;;2.10;2.00;;;18.50;73.50;;;;;;5042923;28;43685;-73
2022/11/11 11:08:44;;;;;;;2.03;1.93;;;18.40;73.40;;;;;;5042786;28;43395;-74
2022/11/11 11:11:36;;;;;;;2.00;1.90;;;18.40;73.60;;;;;;5041231;28;43400;-74
2022/11/11 11:14:29;;;;;;;2.20;2.10;;;18.30;73.70;;;;;;5043232;28;43482;-74
2022/11/11 11:17:17;;;;;;;1.80;1.80;;;18.30;74.20;;;;;;5037176;28;43502;-74
2022/11/11 11:20:08;;;;;;;1.97;1.97;;;18.30;74.60;;;;;;5042989;28;43542;-74
2022/11/11 11:22:57;;;;;;;2.20;2.00;;;18.30;73.90;;;;;;5042732;28;43613;-73
2022/11/11 11:25:44;;;;;;;2.03;1.93;;;18.30;74.00;;;;;;5041616;28;44193;-75
2022/11/11 11:28:33;;;;;;;1.87;1.87;;;18.20;74.20;;;;;;5042055;28;43493;-75
2022/11/11 11:31:21;;;;;;;1.73;1.73;;;18.20;75.10;;;;;;5045321;28;43387;-73
2022/11/11 11:34:07;;;;;;;1.80;1.80;;;18.20;74.10;;;;;;5040416;28;43281;-74
2022/11/11 11:37:00;;;;;;;2.00;1.90;;;18.20;74.10;;;;;;5043161;28;43444;-74
2022/11/11 11:39:47;;;;;;;1.77;1.77;;;18.20;74.20;;;;;;5042072;28;43713;-74
2022/11/11 11:42:35;;;;;;;1.97;1.87;;;18.20;74.30;;;;;;5042456;28;43556;-74
2022/11/11 11:45:24;;;;;;;1.80;1.80;;;18.20;74.70;;;;;;5038572;28;43401;-74
2022/11/11 11:48:17;;;;;;;1.70;1.70;;;18.30;74.30;;;;;;5042580;28;43417;-73
2022/11/11 11:51:21;;;;;;;2.07;2.00;;;18.50;73.90;;;;;;5039596;28;43602;-74
2022/11/11 11:54:16;;;;;;;1.77;1.77;;;18.60;73.20;;;;;;5048917;28;43382;-73
2022/11/11 11:57:04;;;;;;;2.30;2.20;;;18.70;72.90;;;;;;5046097;28;43444;-74
2022/11/11 11:59:52;;;;;;;1.77;1.77;;;18.70;72.70;;;;;;5046359;28;43370;-75
2022/11/11 12:02:55;;;;;;;1.90;1.87;;;18.60;72.80;;;;;;5045570;28;43489;-74
2022/11/11 12:05:43;;;;;;;2.00;1.90;;;18.50;73.00;;;;;;5045681;28;43393;-75
2022/11/11 12:08:40;;;;;;;1.80;1.80;;;18.50;73.60;;;;;;5041938;28;43420;-73
2022/11/11 12:11:30;;;;;;;2.13;2.03;;;18.40;73.70;;;;;;5045660;28;43451;-74
2022/11/11 12:14:27;;;;;;;1.80;1.80;;;18.40;74.30;;;;;;5045245;28;43893;-75
2022/11/11 12:17:26;;;;;;;2.23;2.17;;;18.40;73.70;;;;;;5046278;28;43401;-74
2022/11/11 12:20:17;;;;;;;1.80;1.80;;;18.30;73.80;;;;;;5047187;28;44427;-74
2022/11/11 12:23:15;;;;;;;1.90;1.90;;;18.30;74.30;;;;;;5040916;28;43415;-74
2022/11/11 12:26:03;;;;;;;1.80;1.80;;;18.30;74.20;;;;;;5045474;28;43612;-75
2022/11/11 12:29:02;;;;;;;2.00;1.90;;;18.30;74.00;;;;;;5039873;28;43556;-75
2022/11/11 12:31:58;;;;;;;1.80;1.70;;;18.30;74.00;;;;;;5045162;28;43458;-74
2022/11/11 12:35:19;;;;;;;1.43;1.43;;;18.20;74.70;;;;;;5043105;28;44077;-74
2022/11/11 12:38:23;;;;;;;1.80;1.80;;;18.20;74.50;;;;;;4946340;28;43511;-75
2022/11/11 12:41:15;;;;;;;1.80;1.80;;;18.30;74.50;;;;;;5047016;28;43341;-73
2022/11/11 12:44:04;;;;;;;1.80;1.80;;;18.40;74.10;;;;;;5044978;28;43398;-73
2022/11/11 12:46:58;;;;;;;1.73;1.73;;;18.60;73.60;;;;;;5041071;28;43436;-73
2022/11/11 12:49:51;;;;;;;1.90;1.90;;;18.70;73.10;;;;;;5044837;28;43914;-73
2022/11/11 12:52:46;;;;;;;1.87;1.80;;;18.70;72.90;;;;;;5039526;28;43907;-74
2022/11/11 12:55:36;;;;;;;1.87;1.80;;;18.60;73.00;;;;;;5044917;28;43851;-75
2022/11/11 12:58:28;;;;;;;1.80;1.80;;;18.50;73.10;;;;;;5040845;28;43317;-74
2022/11/11 13:01:20;;;;;;;1.80;1.80;;;18.40;73.40;;;;;;5044781;28;44006;-73
2022/11/11 13:04:35;;;;;;;2.07;2.07;;;18.40;74.10;;;;;;5042972;28;43373;-73
2022/11/11 13:07:45;;;;;;;1.70;1.70;;;18.30;73.80;;;;;;5040322;28;43392;-73
2022/11/11 13:10:34;;;;;;;1.87;1.80;;;18.30;73.90;;;;;;5044491;28;43433;-76
2022/11/11 13:13:31;;;;;;;1.97;1.90;;;18.30;73.90;;;;;;5041237;28;43544;-74
2022/11/11 13:16:18;;;;;;;1.80;1.80;;;18.30;74.20;;;;;;5044108;28;43961;-75
2022/11/11 13:19:06;;;;;;;1.90;1.80;;;18.20;74.40;;;;;;5044655;28;43563;-72
2022/11/11 13:21:59;;;;;;;2.17;2.10;;;18.40;74.30;;;;;;5044524;28;43487;-75
2022/11/11 13:24:47;;;;;;;1.77;1.77;;;18.40;73.70;;;;;;5044096;28;43497;-72
2022/11/11 13:27:40;;;;;;;1.70;1.70;;;18.50;73.50;;;;;;5046188;28;44077;-74
2022/11/11 13:30:45;;;;;;;1.80;1.80;;;18.40;73.60;;;;;;5038960;28;43368;-73
2022/11/11 13:33:37;;;;;;;1.70;1.70;;;18.40;73.80;;;;;;5044812;28;43480;-74
2022/11/11 13:36:25;;;;;;;1.83;1.83;;;18.40;73.70;;;;;;5040294;28;43490;-73
2022/11/11 13:39:22;;;;;;;1.63;1.63;;;18.40;73.70;;;;;;5045983;28;43458;-74
2022/11/11 13:42:11;;;;;;;1.70;1.70;;;18.30;73.70;;;;;;5042057;28;43405;-74
2022/11/11 13:44:58;;;;;;;1.73;1.73;;;18.30;74.90;;;;;;5043595;28;43345;-74
2022/11/11 13:47:45;;;;;;;1.77;1.70;;;18.30;74.30;;;;;;5038955;28;43536;-75
2022/11/11 13:50:32;;;;;;;1.77;1.70;;;18.30;74.10;;;;;;5041875;28;43366;-73
2022/11/11 13:53:26;;;;;;;1.60;1.60;;;18.20;74.00;;;;;;5037272;28;43432;-76
2022/11/11 13:56:14;;;;;;;1.70;1.70;;;18.20;74.10;;;;;;5040660;28;43325;-75
2022/11/11 13:59:02;;;;;;;1.70;1.70;;;18.20;74.50;;;;;;5043669;28;43885;-74
2022/11/11 14:01:49;;;;;;;1.70;1.70;;;18.20;74.50;;;;;;5045583;28;43503;-75
2022/11/11 14:05:05;;;;;;;1.70;1.70;;;18.20;74.30;;;;;;5039353;28;43442;-73
2022/11/11 14:07:55;;;;;;;1.80;1.80;;;18.20;74.10;;;;;;5038078;28;43456;-74
2022/11/11 14:10:52;;;;;;;1.67;1.67;;;18.20;74.20;;;;;;5043993;28;43523;-73
2022/11/11 14:13:40;;;;;;;1.70;1.70;;;18.20;74.50;;;;;;5044530;28;43441;-74
2022/11/11 14:17:00;;;;;;;1.83;1.80;;;18.20;74.80;;;;;;5043509;28;43372;-73
2022/11/11 14:19:46;;;;;;;1.77;1.77;;;18.40;74.40;;;;;;5038355;28;43376;-74
2022/11/11 14:22:33;;;;;;;1.47;1.47;;;18.50;73.60;;;;;;5040848;28;43576;-74
2022/11/11 14:25:21;;;;;;;1.90;1.80;;;18.70;73.10;;;;;;5043236;28;43462;-74
2022/11/11 14:28:20;;;;;;;1.60;1.60;;;18.70;72.70;;;;;;5043572;28;43401;-75
2022/11/11 14:31:31;;;;;;;1.30;1.30;;;18.70;72.80;;;;;;5045690;28;43408;-74
2022/11/11 14:34:26;;;;;;;1.50;1.50;;;18.60;73.00;;;;;;5042860;28;43762;-74
2022/11/11 14:37:21;;;;;;;2.00;1.80;;;18.50;73.30;;;;;;5043266;28;43475;-74
2022/11/11 14:40:10;;;;;;;1.60;1.60;;;18.40;73.80;;;;;;5043800;28;43438;-74
2022/11/11 14:42:56;;;;;;;1.63;1.63;;;18.40;73.80;;;;;;5039768;28;44011;-74
2022/11/11 14:45:53;;;;;;;1.60;1.60;;;18.30;73.70;;;;;;5042973;28;43621;-74
2022/11/11 14:48:53;;;;;;;1.80;1.80;;;18.30;73.80;;;;;;5038814;28;43431;-74
2022/11/11 14:51:48;;;;;;;1.70;1.70;;;18.30;74.10;;;;;;5045162;28;43421;-75
2022/11/11 14:54:51;;;;;;;1.40;1.40;;;18.20;74.50;;;;;;5040933;28;43424;-75
2022/11/11 14:57:38;;;;;;;1.37;1.37;;;18.20;74.20;;;;;;5037647;28;43536;-76
2022/11/11 15:00:25;;;;;;;1.50;1.50;;;18.20;74.10;;;;;;5042893;28;43414;-75
2022/11/11 15:03:13;;;;;;;1.83;1.77;;;18.20;74.10;;;;;;5046135;28;43418;-74
2022/11/11 15:06:02;;;;;;;1.40;1.40;;;18.20;74.20;;;;;;5041062;28;43479;-74
2022/11/11 15:08:53;;;;;;;1.50;1.50;;;18.10;74.60;;;;;;5042392;28;43607;-74
2022/11/11 15:11:40;;;;;;;1.70;1.70;;;18.20;74.50;;;;;;5042054;28;43423;-73
2022/11/11 15:14:30;;;;;;;1.80;1.70;;;18.40;74.20;;;;;;5041178;28;43380;-75
2022/11/11 15:17:21;;;;;;;1.70;1.70;;;18.50;73.50;;;;;;5041117;28;43417;-75
2022/11/11 15:20:27;;;;;;;1.53;1.53;;;18.60;73.10;;;;;;5043045;28;43544;-75
2022/11/11 15:23:17;;;;;;;1.50;1.50;;;18.60;72.90;;;;;;5042732;28;43377;-73
2022/11/11 15:26:11;;;;;;;1.60;1.60;;;18.50;73.00;;;;;;5044879;28;43352;-74
2022/11/11 15:29:09;;;;;;;1.50;1.50;;;18.40;73.20;;;;;;5043151;28;43448;-73
2022/11/11 15:31:58;;;;;;;1.60;1.60;;;18.40;73.50;;;;;;5046185;28;43492;-73
2022/11/11 15:34:47;;;;;;;1.50;1.50;;;18.30;74.10;;;;;;5046136;28;43844;-74
2022/11/11 15:37:33;;;;;;;1.80;1.80;;;18.30;74.00;;;;;;5048408;28;43468;-74
2022/11/11 15:40:20;;;;;;;1.50;1.50;;;18.30;74.00;;;;;;5041365;28;43846;-75
2022/11/11 15:43:20;;;;;;;1.40;1.40;;;18.20;74.00;;;;;;5047280;28;43651;-74
2022/11/11 15:46:07;;;;;;;1.60;1.60;;;18.20;74.10;;;;;;5041142;28;43419;-73
2022/11/11 15:48:53;;;;;;;1.67;1.67;;;18.20;74.60;;;;;;5046462;28;43537;-73
2022/11/11 15:51:39;;;;;;;1.50;1.50;;;18.20;74.40;;;;;;5044332;28;43415;-75
2022/11/11 15:54:26;;;;;;;1.40;1.40;;;18.20;74.30;;;;;;5041459;28;43630;-73
2022/11/11 15:57:21;;;;;;;1.70;1.70;;;18.20;74.30;;;;;;5046025;28;43344;-73
2022/11/11 16:00:28;;;;;;;1.70;1.60;;;18.10;74.40;;;;;;5041433;28;43446;-76
2022/11/11 16:03:16;;;;;;;1.60;1.60;;;18.20;74.80;;;;;;5048895;28;43744;-74
2022/11/11 16:06:03;;;;;;;1.40;1.40;;;18.30;74.40;;;;;;5044573;28;43690;-75